sensor_id;sensor_type;location;lat;lon;timestamp;P1;durP1;ratioP1;P2;durP2;ratioP2
13807;SDS011;40769;51.512;5.494;2023-04-01T00:01:31;2.50;;;1.50;;
13807;SDS011;40769;51.512;5.494;2023-04-01T00:03:57;2.45;;;1.60;;
13807;SDS011;40769;51.512;5.494;2023-04-01T00:06:23;3.25;;;1.10;;
13807;SDS011;40769;51.512;5.494;2023-04-01T00:08:49;2.40;;;1.40;;
13807;SDS011;40769;51.512;5.494;2023-04-01T00:11:16;2.42;;;1.50;;
13807;SDS011;40769;51.512;5.494;2023-04-01T00:13:42;1.80;;;1.17;;
13807;SDS011;40769;51.512;5.494;2023-04-01T00:16:08;3.65;;;1.40;;
13807;SDS011;40769;51.512;5.494;2023-04-01T00:18:34;3.22;;;1.63;;
13807;SDS011;40769;51.512;5.494;2023-04-01T00:21:00;3.47;;;1.60;;
13807;SDS011;40769;51.512;5.494;2023-04-01T00:23:26;3.58;;;1.55;;
13807;SDS011;40769;51.512;5.494;2023-04-01T00:25:51;2.90;;;1.60;;
13807;SDS011;40769;51.512;5.494;2023-04-01T00:28:17;3.28;;;1.50;;
13807;SDS011;40769;51.512;5.494;2023-04-01T00:30:44;2.83;;;1.35;;
13807;SDS011;40769;51.512;5.494;2023-04-01T00:33:10;3.08;;;1.55;;
13807;SDS011;40769;51.512;5.494;2023-04-01T00:35:36;3.33;;;1.75;;
13807;SDS011;40769;51.512;5.494;2023-04-01T00:38:02;2.95;;;1.50;;
13807;SDS011;40769;51.512;5.494;2023-04-01T00:40:30;2.08;;;1.48;;
13807;SDS011;40769;51.512;5.494;2023-04-01T00:42:58;1.88;;;1.17;;
13807;SDS011;40769;51.512;5.494;2023-04-01T00:45:29;1.75;;;1.30;;
13807;SDS011;40769;51.512;5.494;2023-04-01T00:47:59;1.65;;;1.40;;
13807;SDS011;40769;51.512;5.494;2023-04-01T00:50:30;2.85;;;1.40;;
13807;SDS011;40769;51.512;5.494;2023-04-01T00:53:00;2.15;;;1.77;;
13807;SDS011;40769;51.512;5.494;2023-04-01T00:55:27;1.83;;;1.40;;
13807;SDS011;40769;51.512;5.494;2023-04-01T00:58:00;1.90;;;1.33;;
13807;SDS011;40769;51.512;5.494;2023-04-01T01:00:28;1.60;;;1.30;;
13807;SDS011;40769;51.512;5.494;2023-04-01T01:02:54;2.05;;;1.50;;
13807;SDS011;40769;51.512;5.494;2023-04-01T01:05:22;3.17;;;1.58;;
13807;SDS011;40769;51.512;5.494;2023-04-01T01:11:06;2.25;;;1.55;;
13807;SDS011;40769;51.512;5.494;2023-04-01T01:13:40;2.13;;;1.73;;
13807;SDS011;40769;51.512;5.494;2023-04-01T01:16:25;2.13;;;1.85;;
13807;SDS011;40769;51.512;5.494;2023-04-01T01:21:42;2.33;;;1.90;;
13807;SDS011;40769;51.512;5.494;2023-04-01T01:24:40;3.17;;;1.80;;
13807;SDS011;40769;51.512;5.494;2023-04-01T01:27:17;2.13;;;1.70;;
13807;SDS011;40769;51.512;5.494;2023-04-01T01:38:14;2.45;;;1.70;;
13807;SDS011;40769;51.512;5.494;2023-04-01T01:40:47;2.38;;;1.60;;
13807;SDS011;40769;51.512;5.494;2023-04-01T01:43:17;2.13;;;1.92;;
13807;SDS011;40769;51.512;5.494;2023-04-01T01:45:48;2.60;;;2.40;;
13807;SDS011;40769;51.512;5.494;2023-04-01T01:48:17;2.22;;;2.03;;
13807;SDS011;40769;51.512;5.494;2023-04-01T01:50:45;2.40;;;2.20;;
13807;SDS011;40769;51.512;5.494;2023-04-01T01:53:13;1.85;;;1.75;;
13807;SDS011;40769;51.512;5.494;2023-04-01T01:55:40;2.00;;;1.90;;
13807;SDS011;40769;51.512;5.494;2023-04-01T01:58:22;2.60;;;2.40;;
13807;SDS011;40769;51.512;5.494;2023-04-01T02:00:59;3.38;;;3.05;;
13807;SDS011;40769;51.512;5.494;2023-04-01T02:03:28;4.20;;;3.80;;
13807;SDS011;40769;51.512;5.494;2023-04-01T02:05:58;3.45;;;3.15;;
13807;SDS011;40769;51.512;5.494;2023-04-01T02:08:30;3.95;;;3.65;;
13807;SDS011;40769;51.512;5.494;2023-04-01T02:11:09;3.58;;;3.38;;
13807;SDS011;40769;51.512;5.494;2023-04-01T02:13:51;3.88;;;3.58;;
13807;SDS011;40769;51.512;5.494;2023-04-01T02:16:34;3.70;;;3.45;;
13807;SDS011;40769;51.512;5.494;2023-04-01T02:19:05;3.97;;;3.67;;
13807;SDS011;40769;51.512;5.494;2023-04-01T02:21:33;4.80;;;4.50;;
13807;SDS011;40769;51.512;5.494;2023-04-01T02:24:00;5.00;;;4.60;;
13807;SDS011;40769;51.512;5.494;2023-04-01T02:26:29;5.25;;;4.85;;
13807;SDS011;40769;51.512;5.494;2023-04-01T02:28:55;4.93;;;4.60;;
13807;SDS011;40769;51.512;5.494;2023-04-01T02:31:23;5.35;;;4.95;;
13807;SDS011;40769;51.512;5.494;2023-04-01T02:33:49;5.53;;;5.03;;
13807;SDS011;40769;51.512;5.494;2023-04-01T02:36:16;5.97;;;5.47;;
13807;SDS011;40769;51.512;5.494;2023-04-01T02:38:43;6.30;;;5.80;;
13807;SDS011;40769;51.512;5.494;2023-04-01T02:41:10;6.70;;;6.10;;
13807;SDS011;40769;51.512;5.494;2023-04-01T02:43:37;7.40;;;6.80;;
13807;SDS011;40769;51.512;5.494;2023-04-01T02:46:02;7.88;;;7.10;;
13807;SDS011;40769;51.512;5.494;2023-04-01T02:48:28;8.30;;;7.60;;
13807;SDS011;40769;51.512;5.494;2023-04-01T02:50:54;8.07;;;7.38;;
13807;SDS011;40769;51.512;5.494;2023-04-01T02:53:20;8.35;;;7.53;;
13807;SDS011;40769;51.512;5.494;2023-04-01T02:55:46;7.90;;;7.30;;
13807;SDS011;40769;51.512;5.494;2023-04-01T02:58:14;8.98;;;8.18;;
13807;SDS011;40769;51.512;5.494;2023-04-01T03:00:40;9.00;;;8.05;;
13807;SDS011;40769;51.512;5.494;2023-04-01T03:03:05;9.70;;;8.80;;
13807;SDS011;40769;51.512;5.494;2023-04-01T03:05:33;10.05;;;9.15;;
13807;SDS011;40769;51.512;5.494;2023-04-01T03:07:58;9.85;;;9.05;;
13807;SDS011;40769;51.512;5.494;2023-04-01T03:10:24;10.00;;;9.10;;
13807;SDS011;40769;51.512;5.494;2023-04-01T03:12:50;9.63;;;8.82;;
13807;SDS011;40769;51.512;5.494;2023-04-01T03:15:15;10.90;;;9.80;;
13807;SDS011;40769;51.512;5.494;2023-04-01T03:17:42;10.38;;;9.38;;
13807;SDS011;40769;51.512;5.494;2023-04-01T03:20:08;9.70;;;8.77;;
13807;SDS011;40769;51.512;5.494;2023-04-01T03:22:35;9.00;;;8.20;;
13807;SDS011;40769;51.512;5.494;2023-04-01T03:25:02;8.60;;;7.90;;
13807;SDS011;40769;51.512;5.494;2023-04-01T03:27:28;8.38;;;7.57;;
13807;SDS011;40769;51.512;5.494;2023-04-01T03:29:54;7.97;;;7.28;;
13807;SDS011;40769;51.512;5.494;2023-04-01T03:32:20;8.00;;;7.30;;
13807;SDS011;40769;51.512;5.494;2023-04-01T03:34:45;7.32;;;6.72;;
13807;SDS011;40769;51.512;5.494;2023-04-01T03:37:11;6.85;;;6.28;;
13807;SDS011;40769;51.512;5.494;2023-04-01T03:39:37;6.78;;;6.28;;
13807;SDS011;40769;51.512;5.494;2023-04-01T03:42:02;6.32;;;5.78;;
13807;SDS011;40769;51.512;5.494;2023-04-01T03:44:32;6.93;;;6.43;;
13807;SDS011;40769;51.512;5.494;2023-04-01T03:46:58;6.88;;;6.28;;
13807;SDS011;40769;51.512;5.494;2023-04-01T03:49:24;6.82;;;6.28;;
13807;SDS011;40769;51.512;5.494;2023-04-01T03:51:50;6.63;;;6.10;;
13807;SDS011;40769;51.512;5.494;2023-04-01T03:54:15;6.38;;;5.88;;
13807;SDS011;40769;51.512;5.494;2023-04-01T03:56:42;5.93;;;5.43;;
13807;SDS011;40769;51.512;5.494;2023-04-01T03:59:07;6.13;;;5.65;;
13807;SDS011;40769;51.512;5.494;2023-04-01T04:01:33;7.22;;;6.60;;
13807;SDS011;40769;51.512;5.494;2023-04-01T04:03:59;6.60;;;6.10;;
13807;SDS011;40769;51.512;5.494;2023-04-01T04:06:26;5.18;;;4.78;;
13807;SDS011;40769;51.512;5.494;2023-04-01T04:08:52;6.00;;;5.50;;
13807;SDS011;40769;51.512;5.494;2023-04-01T04:11:18;6.00;;;5.50;;
13807;SDS011;40769;51.512;5.494;2023-04-01T04:13:45;5.85;;;5.28;;
13807;SDS011;40769;51.512;5.494;2023-04-01T04:16:12;5.47;;;5.03;;
13807;SDS011;40769;51.512;5.494;2023-04-01T04:18:38;5.88;;;5.38;;
13807;SDS011;40769;51.512;5.494;2023-04-01T04:21:04;5.25;;;4.75;;
13807;SDS011;40769;51.512;5.494;2023-04-01T04:23:30;4.85;;;4.50;;
13807;SDS011;40769;51.512;5.494;2023-04-01T04:25:59;5.00;;;4.60;;
13807;SDS011;40769;51.512;5.494;2023-04-01T04:28:27;4.70;;;4.40;;
13807;SDS011;40769;51.512;5.494;2023-04-01T04:30:54;4.93;;;4.53;;
13807;SDS011;40769;51.512;5.494;2023-04-01T04:33:20;4.03;;;3.72;;
13807;SDS011;40769;51.512;5.494;2023-04-01T04:35:46;4.13;;;3.83;;
13807;SDS011;40769;51.512;5.494;2023-04-01T04:38:12;4.50;;;4.20;;
13807;SDS011;40769;51.512;5.494;2023-04-01T04:40:38;3.83;;;3.53;;
13807;SDS011;40769;51.512;5.494;2023-04-01T04:43:04;3.58;;;3.28;;
13807;SDS011;40769;51.512;5.494;2023-04-01T04:45:30;4.00;;;3.70;;
13807;SDS011;40769;51.512;5.494;2023-04-01T04:47:57;3.92;;;3.63;;
13807;SDS011;40769;51.512;5.494;2023-04-01T04:50:23;4.25;;;3.95;;
13807;SDS011;40769;51.512;5.494;2023-04-01T04:52:49;3.50;;;3.30;;
13807;SDS011;40769;51.512;5.494;2023-04-01T04:55:15;3.58;;;3.33;;
13807;SDS011;40769;51.512;5.494;2023-04-01T04:57:43;3.17;;;2.97;;
13807;SDS011;40769;51.512;5.494;2023-04-01T05:00:09;3.47;;;3.22;;
13807;SDS011;40769;51.512;5.494;2023-04-01T05:02:35;3.58;;;3.38;;
13807;SDS011;40769;51.512;5.494;2023-04-01T05:05:01;2.70;;;2.50;;
13807;SDS011;40769;51.512;5.494;2023-04-01T05:07:27;3.28;;;3.00;;
13807;SDS011;40769;51.512;5.494;2023-04-01T05:09:52;2.60;;;2.40;;
13807;SDS011;40769;51.512;5.494;2023-04-01T05:12:18;3.25;;;3.05;;
13807;SDS011;40769;51.512;5.494;2023-04-01T05:14:43;3.50;;;3.30;;
13807;SDS011;40769;51.512;5.494;2023-04-01T05:17:10;3.90;;;3.60;;
13807;SDS011;40769;51.512;5.494;2023-04-01T05:19:38;2.90;;;2.70;;
13807;SDS011;40769;51.512;5.494;2023-04-01T05:22:04;3.42;;;3.22;;
13807;SDS011;40769;51.512;5.494;2023-04-01T05:24:30;3.20;;;3.00;;
13807;SDS011;40769;51.512;5.494;2023-04-01T05:26:57;3.10;;;2.90;;
13807;SDS011;40769;51.512;5.494;2023-04-01T05:29:24;3.13;;;2.92;;
13807;SDS011;40769;51.512;5.494;2023-04-01T05:31:50;2.97;;;2.78;;
13807;SDS011;40769;51.512;5.494;2023-04-01T05:34:16;2.72;;;2.53;;
13807;SDS011;40769;51.512;5.494;2023-04-01T05:36:42;3.00;;;2.80;;
13807;SDS011;40769;51.512;5.494;2023-04-01T05:39:08;3.30;;;3.00;;
13807;SDS011;40769;51.512;5.494;2023-04-01T05:41:38;3.45;;;3.20;;
13807;SDS011;40769;51.512;5.494;2023-04-01T05:44:05;2.90;;;2.70;;
13807;SDS011;40769;51.512;5.494;2023-04-01T05:46:31;3.90;;;3.40;;
13807;SDS011;40769;51.512;5.494;2023-04-01T05:48:57;3.10;;;2.90;;
13807;SDS011;40769;51.512;5.494;2023-04-01T05:51:22;3.20;;;3.00;;
13807;SDS011;40769;51.512;5.494;2023-04-01T05:53:48;3.70;;;3.40;;
13807;SDS011;40769;51.512;5.494;2023-04-01T05:56:14;3.70;;;3.40;;
13807;SDS011;40769;51.512;5.494;2023-04-01T05:58:40;2.83;;;2.63;;
13807;SDS011;40769;51.512;5.494;2023-04-01T06:01:06;3.88;;;3.58;;
13807;SDS011;40769;51.512;5.494;2023-04-01T06:03:34;4.03;;;3.72;;
13807;SDS011;40769;51.512;5.494;2023-04-01T06:06:00;3.78;;;3.47;;
13807;SDS011;40769;51.512;5.494;2023-04-01T06:08:26;4.60;;;4.20;;
13807;SDS011;40769;51.512;5.494;2023-04-01T06:21:20;6.20;;;5.60;;
13807;SDS011;40769;51.512;5.494;2023-04-01T06:31:46;5.30;;;4.90;;
13807;SDS011;40769;51.512;5.494;2023-04-01T06:45:28;6.32;;;5.80;;
13807;SDS011;40769;51.512;5.494;2023-04-01T06:48:13;6.35;;;5.75;;
13807;SDS011;40769;51.512;5.494;2023-04-01T06:54:09;6.63;;;6.13;;
13807;SDS011;40769;51.512;5.494;2023-04-01T06:56:40;7.88;;;7.18;;
13807;SDS011;40769;51.512;5.494;2023-04-01T06:59:17;8.32;;;7.65;;
13807;SDS011;40769;51.512;5.494;2023-04-01T07:01:50;8.65;;;7.95;;
13807;SDS011;40769;51.512;5.494;2023-04-01T07:04:20;8.27;;;7.57;;
13807;SDS011;40769;51.512;5.494;2023-04-01T07:07:00;9.75;;;8.85;;
13807;SDS011;40769;51.512;5.494;2023-04-01T07:09:32;10.57;;;9.68;;
13807;SDS011;40769;51.512;5.494;2023-04-01T07:12:03;11.25;;;10.25;;
13807;SDS011;40769;51.512;5.494;2023-04-01T07:15:00;10.75;;;9.75;;
13807;SDS011;40769;51.512;5.494;2023-04-01T07:17:31;12.25;;;11.23;;
13807;SDS011;40769;51.512;5.494;2023-04-01T07:20:03;11.57;;;10.57;;
13807;SDS011;40769;51.512;5.494;2023-04-01T07:22:49;10.63;;;9.65;;
13807;SDS011;40769;51.512;5.494;2023-04-01T07:25:27;18.60;;;11.57;;
13807;SDS011;40769;51.512;5.494;2023-04-01T07:27:58;12.68;;;11.52;;
13807;SDS011;40769;51.512;5.494;2023-04-01T07:30:33;13.93;;;12.73;;
13807;SDS011;40769;51.512;5.494;2023-04-01T07:33:24;12.80;;;11.70;;
13807;SDS011;40769;51.512;5.494;2023-04-01T07:41:24;13.35;;;12.23;;
13807;SDS011;40769;51.512;5.494;2023-04-01T07:44:25;14.15;;;12.95;;
13807;SDS011;40769;51.512;5.494;2023-04-01T07:55:21;14.30;;;13.00;;
13807;SDS011;40769;51.512;5.494;2023-04-01T08:01:09;14.30;;;13.00;;
13807;SDS011;40769;51.512;5.494;2023-04-01T08:14:55;14.82;;;13.32;;
13807;SDS011;40769;51.512;5.494;2023-04-01T08:17:28;15.95;;;14.40;;
13807;SDS011;40769;51.512;5.494;2023-04-01T08:23:04;13.98;;;12.68;;
13807;SDS011;40769;51.512;5.494;2023-04-01T08:25:53;14.93;;;13.43;;
13807;SDS011;40769;51.512;5.494;2023-04-01T08:28:32;15.23;;;13.70;;
13807;SDS011;40769;51.512;5.494;2023-04-01T08:31:13;13.85;;;12.48;;
13807;SDS011;40769;51.512;5.494;2023-04-01T08:33:46;13.30;;;11.98;;
13807;SDS011;40769;51.512;5.494;2023-04-01T08:36:17;14.43;;;13.05;;
13807;SDS011;40769;51.512;5.494;2023-04-01T08:39:02;13.93;;;12.63;;
13807;SDS011;40769;51.512;5.494;2023-04-01T08:52:35;14.25;;;12.93;;
13807;SDS011;40769;51.512;5.494;2023-04-01T08:57:54;14.88;;;13.52;;
13807;SDS011;40769;51.512;5.494;2023-04-01T09:03:47;14.85;;;13.35;;
13807;SDS011;40769;51.512;5.494;2023-04-01T09:12:08;13.07;;;11.88;;
13807;SDS011;40769;51.512;5.494;2023-04-01T09:15:14;14.63;;;13.15;;
13807;SDS011;40769;51.512;5.494;2023-04-01T09:23:43;13.10;;;11.85;;
13807;SDS011;40769;51.512;5.494;2023-04-01T09:32:22;13.23;;;11.93;;
13807;SDS011;40769;51.512;5.494;2023-04-01T09:46:20;10.43;;;9.60;;
13807;SDS011;40769;51.512;5.494;2023-04-01T10:03:12;7.32;;;6.75;;
13807;SDS011;40769;51.512;5.494;2023-04-01T10:41:31;8.43;;;7.75;;
13807;SDS011;40769;51.512;5.494;2023-04-01T10:44:33;8.07;;;7.47;;
13807;SDS011;40769;51.512;5.494;2023-04-01T10:50:25;8.07;;;7.47;;
13807;SDS011;40769;51.512;5.494;2023-04-01T11:01:53;9.57;;;8.77;;
13807;SDS011;40769;51.512;5.494;2023-04-01T11:38:42;12.10;;;11.10;;
13807;SDS011;40769;51.512;5.494;2023-04-01T11:41:22;11.23;;;10.23;;
13807;SDS011;40769;51.512;5.494;2023-04-01T11:46:52;10.13;;;9.32;;
13807;SDS011;40769;51.512;5.494;2023-04-01T12:00:57;9.10;;;8.40;;
13807;SDS011;40769;51.512;5.494;2023-04-01T12:03:48;10.82;;;9.93;;
13807;SDS011;40769;51.512;5.494;2023-04-01T12:06:44;10.90;;;10.07;;
13807;SDS011;40769;51.512;5.494;2023-04-01T12:12:28;9.30;;;8.60;;
13807;SDS011;40769;51.512;5.494;2023-04-01T12:18:24;8.25;;;7.65;;
13807;SDS011;40769;51.512;5.494;2023-04-01T12:26:30;7.28;;;6.78;;
13807;SDS011;40769;51.512;5.494;2023-04-01T12:32:55;7.18;;;6.68;;
13807;SDS011;40769;51.512;5.494;2023-04-01T12:41:07;7.55;;;6.95;;
13807;SDS011;40769;51.512;5.494;2023-04-01T12:46:36;8.55;;;7.95;;
13807;SDS011;40769;51.512;5.494;2023-04-01T12:52:22;8.20;;;7.60;;
13807;SDS011;40769;51.512;5.494;2023-04-01T12:55:30;7.03;;;6.53;;
13807;SDS011;40769;51.512;5.494;2023-04-01T13:00:58;7.75;;;7.15;;
13807;SDS011;40769;51.512;5.494;2023-04-01T13:06:38;8.52;;;7.82;;
13807;SDS011;40769;51.512;5.494;2023-04-01T13:15:11;9.10;;;8.40;;
13807;SDS011;40769;51.512;5.494;2023-04-01T13:34:17;8.88;;;8.05;;
13807;SDS011;40769;51.512;5.494;2023-04-01T13:37:05;8.23;;;7.60;;
13807;SDS011;40769;51.512;5.494;2023-04-01T13:42:54;7.50;;;6.97;;
13807;SDS011;40769;51.512;5.494;2023-04-01T13:45:50;7.22;;;6.63;;
13807;SDS011;40769;51.512;5.494;2023-04-01T13:51:12;8.10;;;7.50;;
13807;SDS011;40769;51.512;5.494;2023-04-01T14:01:41;5.50;;;5.10;;
13807;SDS011;40769;51.512;5.494;2023-04-01T14:18:02;8.10;;;7.50;;
13807;SDS011;40769;51.512;5.494;2023-04-01T14:37:35;6.75;;;6.25;;
13807;SDS011;40769;51.512;5.494;2023-04-01T14:49:00;6.57;;;6.15;;
13807;SDS011;40769;51.512;5.494;2023-04-01T14:51:31;7.22;;;6.65;;
13807;SDS011;40769;51.512;5.494;2023-04-01T14:54:37;7.72;;;7.05;;
13807;SDS011;40769;51.512;5.494;2023-04-01T14:57:15;6.53;;;5.97;;
13807;SDS011;40769;51.512;5.494;2023-04-01T15:05:18;8.70;;;8.00;;
13807;SDS011;40769;51.512;5.494;2023-04-01T15:10:43;7.80;;;7.20;;
13807;SDS011;40769;51.512;5.494;2023-04-01T15:13:55;8.32;;;7.63;;
13807;SDS011;40769;51.512;5.494;2023-04-01T15:25:19;9.38;;;8.57;;
13807;SDS011;40769;51.512;5.494;2023-04-01T15:38:24;9.85;;;9.05;;
13807;SDS011;40769;51.512;5.494;2023-04-01T15:41:09;9.93;;;9.07;;
13807;SDS011;40769;51.512;5.494;2023-04-01T15:43:42;8.50;;;7.72;;
13807;SDS011;40769;51.512;5.494;2023-04-01T15:46:30;9.73;;;8.93;;
13807;SDS011;40769;51.512;5.494;2023-04-01T15:51:54;10.20;;;9.40;;
13807;SDS011;40769;51.512;5.494;2023-04-01T15:54:54;9.80;;;9.00;;
13807;SDS011;40769;51.512;5.494;2023-04-01T16:00:30;10.38;;;9.48;;
13807;SDS011;40769;51.512;5.494;2023-04-01T16:03:30;10.02;;;9.23;;
13807;SDS011;40769;51.512;5.494;2023-04-01T16:21:45;9.93;;;9.07;;
13807;SDS011;40769;51.512;5.494;2023-04-01T16:24:39;10.02;;;9.18;;
13807;SDS011;40769;51.512;5.494;2023-04-01T16:27:15;9.43;;;8.70;;
13807;SDS011;40769;51.512;5.494;2023-04-01T16:43:28;11.68;;;10.77;;
13807;SDS011;40769;51.512;5.494;2023-04-01T16:51:44;10.88;;;9.98;;
13807;SDS011;40769;51.512;5.494;2023-04-01T16:54:23;9.88;;;9.07;;
13807;SDS011;40769;51.512;5.494;2023-04-01T16:57:10;9.15;;;8.35;;
13807;SDS011;40769;51.512;5.494;2023-04-01T17:03:13;7.60;;;7.00;;
13807;SDS011;40769;51.512;5.494;2023-04-01T17:11:27;6.95;;;6.35;;
13807;SDS011;40769;51.512;5.494;2023-04-01T17:17:05;6.07;;;5.60;;
13807;SDS011;40769;51.512;5.494;2023-04-01T17:22:37;5.75;;;5.20;;
13807;SDS011;40769;51.512;5.494;2023-04-01T17:37:32;5.10;;;4.70;;
13807;SDS011;40769;51.512;5.494;2023-04-01T17:48:56;4.53;;;4.22;;
13807;SDS011;40769;51.512;5.494;2023-04-01T17:54:46;5.15;;;4.72;;
13807;SDS011;40769;51.512;5.494;2023-04-01T18:05:40;5.53;;;5.03;;
13807;SDS011;40769;51.512;5.494;2023-04-01T18:08:32;5.00;;;4.60;;
13807;SDS011;40769;51.512;5.494;2023-04-01T18:11:19;5.18;;;4.78;;
13807;SDS011;40769;51.512;5.494;2023-04-01T18:14:13;5.13;;;4.72;;
13807;SDS011;40769;51.512;5.494;2023-04-01T18:16:59;4.22;;;3.90;;
13807;SDS011;40769;51.512;5.494;2023-04-01T18:22:39;4.60;;;4.20;;
13807;SDS011;40769;51.512;5.494;2023-04-01T18:27:50;5.10;;;4.70;;
13807;SDS011;40769;51.512;5.494;2023-04-01T18:38:28;5.25;;;4.85;;
13807;SDS011;40769;51.512;5.494;2023-04-01T18:46:34;5.25;;;4.85;;
13807;SDS011;40769;51.512;5.494;2023-04-01T18:56:41;4.57;;;4.18;;
13807;SDS011;40769;51.512;5.494;2023-04-01T19:07:39;4.40;;;4.10;;
13807;SDS011;40769;51.512;5.494;2023-04-01T19:15:31;4.32;;;4.03;;
13807;SDS011;40769;51.512;5.494;2023-04-01T19:18:30;4.82;;;4.53;;
13807;SDS011;40769;51.512;5.494;2023-04-01T19:26:13;6.43;;;5.93;;
13807;SDS011;40769;51.512;5.494;2023-04-01T19:37:31;6.35;;;5.88;;
13807;SDS011;40769;51.512;5.494;2023-04-01T19:45:54;8.73;;;8.02;;
13807;SDS011;40769;51.512;5.494;2023-04-01T19:51:07;8.13;;;7.50;;
13807;SDS011;40769;51.512;5.494;2023-04-01T19:53:55;10.05;;;9.25;;
13807;SDS011;40769;51.512;5.494;2023-04-01T19:56:42;9.10;;;8.30;;
13807;SDS011;40769;51.512;5.494;2023-04-01T19:59:29;8.63;;;7.93;;
13807;SDS011;40769;51.512;5.494;2023-04-01T20:04:45;8.57;;;7.95;;
13807;SDS011;40769;51.512;5.494;2023-04-01T20:14:51;8.55;;;7.85;;
13807;SDS011;40769;51.512;5.494;2023-04-01T20:17:23;8.32;;;7.63;;
13807;SDS011;40769;51.512;5.494;2023-04-01T20:20:03;8.32;;;7.70;;
13807;SDS011;40769;51.512;5.494;2023-04-01T20:25:13;7.72;;;7.13;;
13807;SDS011;40769;51.512;5.494;2023-04-01T20:27:44;8.60;;;7.90;;
13807;SDS011;40769;51.512;5.494;2023-04-01T20:33:21;8.52;;;7.93;;
13807;SDS011;40769;51.512;5.494;2023-04-01T20:59:53;9.02;;;7.72;;
13807;SDS011;40769;51.512;5.494;2023-04-01T21:10:36;9.10;;;8.40;;
13807;SDS011;40769;51.512;5.494;2023-04-01T21:13:21;8.23;;;7.63;;
13807;SDS011;40769;51.512;5.494;2023-04-01T21:16:22;8.07;;;7.47;;
13807;SDS011;40769;51.512;5.494;2023-04-01T21:24:33;7.78;;;7.18;;
13807;SDS011;40769;51.512;5.494;2023-04-01T21:30:01;8.00;;;7.40;;
13807;SDS011;40769;51.512;5.494;2023-04-01T21:35:44;7.40;;;6.80;;
13807;SDS011;40769;51.512;5.494;2023-04-01T21:47:06;9.95;;;9.15;;
13807;SDS011;40769;51.512;5.494;2023-04-01T22:00:38;10.60;;;9.80;;
13807;SDS011;40769;51.512;5.494;2023-04-01T22:20:16;9.52;;;8.82;;
13807;SDS011;40769;51.512;5.494;2023-04-01T22:28:22;11.20;;;10.30;;
13807;SDS011;40769;51.512;5.494;2023-04-01T22:30:55;13.80;;;12.60;;
13807;SDS011;40769;51.512;5.494;2023-04-01T22:38:54;16.40;;;15.00;;
13807;SDS011;40769;51.512;5.494;2023-04-01T22:44:34;14.30;;;13.10;;
13807;SDS011;40769;51.512;5.494;2023-04-01T22:47:08;14.77;;;13.48;;
13807;SDS011;40769;51.512;5.494;2023-04-01T22:49:50;15.32;;;14.13;;
13807;SDS011;40769;51.512;5.494;2023-04-01T22:52:31;14.07;;;12.90;;
13807;SDS011;40769;51.512;5.494;2023-04-01T23:00:35;13.48;;;12.38;;
13807;SDS011;40769;51.512;5.494;2023-04-01T23:05:48;12.52;;;11.45;;
13807;SDS011;40769;51.512;5.494;2023-04-01T23:11:04;12.80;;;11.80;;
13807;SDS011;40769;51.512;5.494;2023-04-01T23:13:36;13.43;;;12.27;;
13807;SDS011;40769;51.512;5.494;2023-04-01T23:16:06;12.55;;;11.55;;
13807;SDS011;40769;51.512;5.494;2023-04-01T23:18:52;13.85;;;12.75;;
13807;SDS011;40769;51.512;5.494;2023-04-01T23:21:28;12.93;;;11.93;;
13807;SDS011;40769;51.512;5.494;2023-04-01T23:29:25;13.63;;;12.57;;
13807;SDS011;40769;51.512;5.494;2023-04-01T23:31:59;12.68;;;11.68;;
13807;SDS011;40769;51.512;5.494;2023-04-01T23:34:33;12.00;;;11.10;;
13807;SDS011;40769;51.512;5.494;2023-04-01T23:37:10;12.40;;;11.40;;
13807;SDS011;40769;51.512;5.494;2023-04-01T23:39:39;12.20;;;11.30;;
13807;SDS011;40769;51.512;5.494;2023-04-01T23:42:07;11.75;;;10.75;;
13807;SDS011;40769;51.512;5.494;2023-04-01T23:44:44;11.95;;;10.95;;
13807;SDS011;40769;51.512;5.494;2023-04-01T23:47:22;11.88;;;10.98;;
13807;SDS011;40769;51.512;5.494;2023-04-01T23:49:52;11.30;;;10.40;;
13807;SDS011;40769;51.512;5.494;2023-04-01T23:52:23;11.95;;;10.90;;
13807;SDS011;40769;51.512;5.494;2023-04-01T23:54:52;11.52;;;10.68;;
13807;SDS011;40769;51.512;5.494;2023-04-01T23:57:31;11.43;;;10.45;;
